Time;durP1;ratioP1;P1;durP2;ratioP2;P2;SDS_P1;SDS_P2;PMS_P1;PMS_P2;Temp;Humidity;BMP_temperature;BMP_pressure;BME280_temperature;BME280_humidity;BME280_pressure;Samples;Min_cycle;Max_cycle;Signal;HPM_P1;HPM_P2
2022/07/07 00:01:59;;;;;;;10.43;4.77;;;;;;;19.47;nan;101667.97;6108913;23;20417;-93
2022/07/07 00:04:27;;;;;;;12.33;4.70;;;;;;;19.45;nan;101668.19;6109603;23;20449;-92
2022/07/07 00:07:15;;;;;;;8.47;4.40;;;;;;;19.49;nan;101668.59;6134011;23;20736;-93
2022/07/07 00:10:17;;;;;;;10.90;5.30;;;;;;;19.47;nan;101679.06;6108728;23;20741;-92
2022/07/07 00:13:39;;;;;;;10.93;4.40;;;;;;;19.43;nan;101670.38;6157313;23;20890;-93
2022/07/07 00:16:34;;;;;;;9.70;5.03;;;;;;;19.41;nan;101668.91;6133825;23;20436;-93
2022/07/07 00:19:04;;;;;;;11.97;4.70;;;;;;;19.35;nan;101676.19;6126106;23;20442;-92
2022/07/07 00:25:39;;;;;;;11.50;4.77;;;;;;;19.35;nan;101678.13;6041103;23;20552;-93
2022/07/07 00:35:51;;;;;;;13.80;4.87;;;;;;;19.33;nan;101676.44;6040290;23;20398;-93
2022/07/07 00:38:55;;;;;;;10.00;5.17;;;;;;;19.40;nan;101664.44;6018384;23;20424;-93
2022/07/07 00:48:46;;;;;;;11.53;5.10;;;;;;;19.26;nan;101680.34;6128136;23;20440;-92
2022/07/07 00:52:01;;;;;;;12.67;6.13;;;;;;;19.20;nan;101676.56;6153962;23;20409;-93
2022/07/07 00:54:34;;;;;;;17.30;5.87;;;;;;;19.16;nan;101660.63;6155269;23;20428;-92
2022/07/07 00:57:17;;;;;;;13.67;6.73;;;;;;;18.95;nan;101648.03;6130170;23;20413;-92
2022/07/07 01:03:35;;;;;;;14.30;6.20;;;;;;;19.01;nan;101662.91;6131714;23;20416;-93
2022/07/07 01:06:06;;;;;;;11.40;6.03;;;;;;;18.93;nan;101647.41;6078526;23;20413;-92
2022/07/07 01:09:22;;;;;;;11.60;5.90;;;;;;;18.98;nan;101666.97;6079688;23;20411;-92
2022/07/07 01:12:29;;;;;;;12.20;6.60;;;;;;;19.03;nan;101652.44;6152586;23;20881;-93
2022/07/07 01:15:38;;;;;;;15.40;7.17;;;;;;;18.98;nan;101655.88;6129703;23;20417;-92
2022/07/07 01:22:53;;;;;;;11.40;6.50;;;;;;;18.84;nan;101646.00;6159436;23;20381;-92
2022/07/07 01:33:27;;;;;;;11.03;5.67;;;;;;;18.73;nan;101647.56;6159204;23;20369;-94
2022/07/07 01:40:09;;;;;;;15.83;7.80;;;;;;;18.63;nan;101630.63;6169369;23;20985;-92
2022/07/07 01:43:05;;;;;;;11.03;6.90;;;;;;;18.57;nan;101637.88;6133175;23;20425;-92
2022/07/07 01:45:42;;;;;;;13.27;6.70;;;;;;;18.57;nan;101628.72;5988752;23;20558;-93
2022/07/07 01:48:10;;;;;;;9.60;6.07;;;;;;;18.58;nan;101635.94;5986274;23;20483;-88
2022/07/07 01:50:44;;;;;;;11.20;6.40;;;;;;;18.60;nan;101631.06;6009580;23;20770;-88
2022/07/07 01:53:12;;;;;;;16.30;7.10;;;;;;;18.66;nan;101637.63;6008829;23;20419;-88
2022/07/07 01:55:48;;;;;;;11.40;6.37;;;;;;;18.59;nan;101637.69;6010134;23;20501;-88
2022/07/07 01:58:21;;;;;;;10.53;6.27;;;;;;;18.62;nan;101628.94;5965407;23;20409;-88
2022/07/07 02:00:52;;;;;;;11.07;6.40;;;;;;;18.64;nan;101632.31;5988574;23;20620;-88
2022/07/07 02:03:31;;;;;;;13.00;6.73;;;;;;;18.59;nan;101630.22;6010288;23;20424;-87
2022/07/07 02:06:03;;;;;;;12.00;7.20;;;;;;;18.55;nan;101628.94;6010799;23;20487;-88
2022/07/07 02:08:30;;;;;;;12.77;7.60;;;;;;;18.52;nan;101625.78;5988365;23;20526;-88
2022/07/07 02:11:13;;;;;;;18.87;6.67;;;;;;;18.42;nan;101617.97;5988571;23;20476;-88
2022/07/07 02:13:50;;;;;;;15.87;7.53;;;;;;;18.57;nan;101615.72;6010927;23;20825;-87
2022/07/07 02:16:21;;;;;;;10.10;6.87;;;;;;;18.51;nan;101622.16;6011198;23;20500;-88
2022/07/07 02:18:53;;;;;;;15.20;7.57;;;;;;;18.49;nan;101624.28;5987922;23;20413;-87
2022/07/07 02:21:22;;;;;;;13.23;7.10;;;;;;;18.45;nan;101617.53;5974071;23;21089;-88
2022/07/07 02:23:51;;;;;;;17.53;7.77;;;;;;;18.32;nan;101600.16;6078799;23;20779;-88
2022/07/07 02:26:38;;;;;;;8.17;6.20;;;;;;;18.36;nan;101616.09;6056122;23;20485;-88
2022/07/07 02:29:18;;;;;;;11.33;6.50;;;;;;;18.36;nan;101607.78;6103251;23;20417;-88
2022/07/07 02:31:46;;;;;;;10.10;5.80;;;;;;;18.36;nan;101610.56;6079749;23;20500;-87
2022/07/07 02:34:14;;;;;;;13.57;6.20;;;;;;;18.37;nan;101603.94;6079136;23;20909;-87
2022/07/07 02:36:47;;;;;;;10.43;6.60;;;;;;;18.34;nan;101604.41;6079517;23;20493;-89
2022/07/07 02:39:18;;;;;;;13.90;7.20;;;;;;;18.36;nan;101602.25;6102554;23;20917;-89
2022/07/07 02:42:10;;;;;;;12.70;7.20;;;;;;;18.39;nan;101599.03;6102457;23;20425;-89
2022/07/07 02:44:38;;;;;;;14.63;8.13;;;;;;;18.35;nan;101595.03;6127764;23;20604;-88
2022/07/07 02:47:06;;;;;;;10.80;6.73;;;;;;;18.32;nan;101589.09;6102843;23;20472;-88
2022/07/07 02:49:40;;;;;;;14.20;7.77;;;;;;;18.37;nan;101590.13;6055931;23;20420;-88
2022/07/07 02:52:08;;;;;;;9.77;6.60;;;;;;;18.27;nan;101590.63;6103152;23;20406;-89
2022/07/07 02:54:36;;;;;;;14.43;8.20;;;;;;;18.30;nan;101590.16;6078883;23;20425;-89
2022/07/07 02:57:11;;;;;;;10.80;8.47;;;;;;;18.28;nan;101577.59;6055461;23;20410;-90
2022/07/07 02:59:41;;;;;;;14.40;7.70;;;;;;;18.30;nan;101589.31;6080166;23;20469;-89
2022/07/07 03:02:12;;;;;;;12.67;6.80;;;;;;;18.38;nan;101597.34;6079886;23;20418;-89
2022/07/07 03:04:42;;;;;;;11.70;7.67;;;;;;;18.39;nan;101604.56;6126757;23;20453;-89
2022/07/07 03:07:19;;;;;;;11.87;7.10;;;;;;;18.39;nan;101596.28;6078212;23;20425;-89
2022/07/07 03:09:47;;;;;;;12.00;6.70;;;;;;;18.39;nan;101598.19;6126578;23;20421;-89
2022/07/07 03:12:26;;;;;;;10.57;6.63;;;;;;;18.39;nan;101601.81;6079170;23;20789;-90
2022/07/07 03:14:57;;;;;;;10.17;7.00;;;;;;;18.34;nan;101598.88;6102675;23;20398;-89
2022/07/07 03:17:29;;;;;;;14.50;7.33;;;;;;;18.36;nan;101599.50;6102675;23;20884;-89
2022/07/07 03:19:57;;;;;;;11.23;7.00;;;;;;;18.38;nan;101599.25;6084411;23;20523;-89
2022/07/07 03:22:26;;;;;;;13.93;7.07;;;;;;;18.33;nan;101590.78;6108009;23;20472;-90
2022/07/07 03:24:56;;;;;;;11.87;7.23;;;;;;;18.27;nan;101592.53;6109031;23;20440;-90
2022/07/07 03:27:26;;;;;;;13.10;6.83;;;;;;;18.19;nan;101584.50;6107461;23;20927;-89
2022/07/07 03:30:05;;;;;;;15.63;6.40;;;;;;;18.18;nan;101591.09;6156077;23;20413;-89
2022/07/07 03:32:38;;;;;;;8.80;5.53;;;;;;;18.25;nan;101591.91;6049225;23;21057;-89
2022/07/07 03:35:09;;;;;;;9.90;5.60;;;;;;;18.16;nan;101576.63;6072685;23;20493;-90
2022/07/07 03:37:38;;;;;;;10.23;6.20;;;;;;;18.15;nan;101586.84;6049954;23;20502;-90
2022/07/07 09:57:24;;;;;;;5.07;2.37;;;;;;;28.54;59.80;101660.97;4947883;28;20886;-89
2022/07/07 22:46:27;;;;;;;11.40;3.17;;;;;;;26.14;53.11;101620.41;4782050;29;20579;-91
